AirNav   Free Bose QuietComfort 20
 
 1465 users online  

NE10 Flying C Heliport
Elkhorn, Nebraska, USA

GOING TO ELKHORN?


FAA INFORMATION EFFECTIVE 05 DECEMBER 2019

Location

FAA Identifier: NE10
Lat/Long: 41-15-25.0000N 096-14-37.0900W
41-15.416667N 096-14.618167W
41.2569444,-96.2436361
(estimated)
Elevation: 1227 ft. / 374 m (estimated)
Variation: 05E (1995)
From city: 2 miles S of ELKHORN, NE
Time zone: UTC -6 (UTC -5 during Daylight Saving Time)
Zip code: 68022

Heliport Operations

Heliport use: Private use. Permission required prior to landing
Activation date: 01/1998
Control tower: no
ARTCC: MINNEAPOLIS CENTER
FSS: COLUMBUS FLIGHT SERVICE STATION
Attendance: CONTINUOUS
Wind indicator: yes
Segmented circle: yes
Lights: SS-SR

Heliport Communications

WX AWOS-3 at MLE (7 nm SE): 118.25 (402-895-6778)
WX AWOS-3 at BTA (11 nm NE): 120.225 (402-426-0448)
WX AWOS-3P at AHQ (16 nm W): 125.975 (402-443-4030)
WX ASOS at OMA (16 nm E): PHONE 402-271-7515
WX AWOS-3 at FET (17 nm NW): 121.275 (402-727-9135)

Nearby radio navigation aids

VOR radial/distance  VOR name  Freq  Var
OVRr275/23.5OMAHA VORTAC116.3008E
SCBr134/27.1SCRIBNER VOR/DME111.0006E
LNKr039/30.1LINCOLN VORTAC116.1009E

 
NDB name  Hdg/Dist  Freq  Var  ID
WAHOO080/16.040006EAHQ .- .... --.-
PLATTSMOUTH316/24.032905EPMV .--. -- ...-

Heliport Services

Runway Information

Helipad H1

Dimensions: 35 x 35 ft. / 11 x 11 m
Surface: asphalt/concrete
Runway edge lights: FLD
Latitude: 41-15.416667N
Longitude: 096-14.618167W
Elevation: 1227.0 ft.
Traffic pattern: leftleft

Heliport Ownership and Management from official FAA records

Ownership: Privately-owned
Owner: JAMES CLARK
20980 RAWHIDE ROAD
ELKHORN, NE 68022
Phone 402-289-4929
Manager: JAMES CLARK
20980 RAWHIDE ROAD
ELKHORN, NE 68022
Phone 402-289-4929

Heliport Operational Statistics

Aircraft based on the field: 2
Single engine airplanes: 1
Helicopters: 1
    

Additional Remarks

A52-H1 4.5 FT FENCE ALL SIDES 35 FT FM HELIPAD; 30 FT HOUSE 50 FT N & 30 FT TREE 100 FT W.
FOR CD CTC OMAHA APCH AT 402-682-4395.

Instrument Procedures

There are no published instrument procedures at NE10.

Some nearby airports with instrument procedures:

KMLE - Millard Airport (7 nm SE)
KBTA - Blair Municipal Airport (11 nm NE)
KAHQ - Wahoo Municipal Airport (16 nm W)
KOMA - Eppley Airfield (16 nm E)
KFET - Fremont Municipal Airport (17 nm NW)
KOFF - Offutt Air Force Base (17 nm SE)
 
Loc | Ops | Rwys | IFR | FBO | Links
Com | Nav | Svcs | Stats | Notes

Silverhawk Aviation, Inc.
AirBoss

 
Area around NE10 (Flying C Heliport)
 
Road maps at: MapQuest Bing Google
 
Aerial photo
No photo
 
Sectional chart

 
Airport distance calculator
Flying to Flying C Heliport? Find the distance to fly.

From to NE10

Sunrise and sunset
Times for 09-Dec-2019
 Local
(UTC-6)
 Zulu
(UTC)
Morning civil twilight07:0913:09
Sunrise07:4013:40
Sunset16:5522:55
Evening civil twilight17:2623:26

Current date and time
Zulu (UTC)  09-Dec-2019 19:29:52
Local (UTC-6)  09-Dec-2019 13:29:52
 
METAR
KMLE 
7nm SE 
091915Z AUTO 33016G22KT 10SM SCT020 M06/M13 A2996 RMK AO2 T10611129
KBTA 
11nm NE 
091915Z AUTO 32018G27KT 10SM SCT020 M08/M12 A2992 RMK AO2 T10771123
KAHQ 
16nm W 
091915Z AUTO 32019G27KT 10SM CLR M06/M12 A2996 RMK AO2 T10651119
KOMA 
16nm E 
091852Z 33021G33KT 10SM SCT022 M07/M13 A2994 RMK AO2 PK WND 34033/1852 SLP151 T10721128
KFET 
17nm NW 
091915Z AUTO 31021G26KT 10SM CLR M07/M12 A2996 RMK AO2 T10701119
KOFF 
17nm SE 
091511Z 32015G20KT 1 3/4SM BLSN BKN020 M09/M12 A2986 RMK SLP134 SNE11 BLSNB11 RVRNO $
TAF
KOMA 
16nm E 
091728Z 0918/1018 34023G34KT P6SM SKC TEMPO 0918/0920 5SM BLSN SCT016 BKN040 BKN060 FM092100 33014KT P6SM FEW150 FM100200 VRB05KT P6SM SKC FM101000 31005KT P6SM SCT090
KOFF 
17nm SE 
091400Z 0914/1020 30015G25KT 9999 BKN020 620206 QNH2958INS TEMPO 0914/0916 33020G35KT 0800 SN OVC015 620156 BECMG 0923/0924 32012G18KT 9999 SCT020 QNH2994INS BECMG 1002/1003 30009KT 9999 FEW020 SCT060 QNH3002INS TXM08/0914Z TNM10/1008Z
NOTAMs
Click for the latest NOTAMs
NOTAMs are issued by the DoD/FAA and will open in a separate window not controlled by AirNav.

 

 
 

Would you like to see your business listed on this page?

 If your business provides an interesting product or service to pilots, flight crews, aircraft, or users of the Flying C Heliport, you should consider listing it here.  To start the listing process, click on the button below
 
Add a business
 

Other Pages about Flying C Heliport

Update a link
 
Copyright © AirNav, LLC. All rights reserved. Privacy Policy  Contact